Time;durP1;ratioP1;P1;durP2;ratioP2;P2;SDS_P1;SDS_P2;PMS_P1;PMS_P2;Temp;Humidity;BMP_temperature;BMP_pressure;BME280_temperature;BME280_humidity;BME280_pressure;Samples;Min_cycle;Max_cycle;Signal;HPM_P1;HPM_P2
2022/08/07 00:00:12;;;;;;;;;;;;;;;15.94;46.69;97434.84;30001;983;1876;-59
2022/08/07 00:00:43;;;;;;;;;;;;;;;15.93;46.88;97433.22;30001;983;1876;-56
2022/08/07 00:01:16;;;;;;;;;;;;;;;15.93;47.20;97439.50;30001;983;1877;-59
2022/08/07 00:01:46;;;;;;;;;;;;;;;15.91;48.55;97441.75;30001;983;1876;-56
2022/08/07 00:02:21;;;;;;;;;;;;;;;15.89;48.06;97443.97;30001;983;1877;-55
2022/08/07 00:02:51;;;;;;;;;;;;;;;15.86;47.94;97441.88;30001;983;1877;-59
2022/08/07 00:03:23;;;;;;;;;;;;;;;15.89;47.55;97438.50;30001;983;1877;-57
2022/08/07 00:03:53;;;;;;;;;;;;;;;15.91;47.30;97436.28;30001;982;1787;-56
2022/08/07 00:04:24;;;;;;;;;;;;;;;15.95;46.64;97437.22;30001;982;1864;-57
2022/08/07 00:04:57;;;;;;;;;;;;;;;15.97;47.04;97440.47;30001;982;1868;-56
2022/08/07 00:05:28;;;;;;;;;;;;;;;15.96;46.51;97432.56;30001;982;1877;-57
2022/08/07 00:05:58;;;;;;;;;;;;;;;15.93;46.88;97436.78;30001;983;1876;-59
2022/08/07 00:06:30;;;;;;;;;;;;;;;15.93;46.49;97434.03;30001;983;1876;-56
2022/08/07 00:07:04;;;;;;;;;;;;;;;15.91;46.89;97436.28;30001;983;1876;-56
2022/08/07 00:07:35;;;;;;;;;;;;;;;15.91;46.77;97435.47;30001;983;1876;-56
2022/08/07 00:08:06;;;;;;;;;;;;;;;15.89;47.35;97435.78;30001;983;1876;-59
2022/08/07 00:08:38;;;;;;;;;;;;;;;15.90;46.96;97440.13;30001;983;1877;-56
2022/08/07 00:09:09;;;;;;;;;;;;;;;15.89;47.96;97445.91;30001;983;1877;-56
2022/08/07 00:09:40;;;;;;;;;;;;;;;15.84;47.50;97435.09;30001;983;1863;-60
2022/08/07 00:10:11;;;;;;;;;;;;;;;15.85;47.74;97436.72;30001;983;1868;-56
2022/08/07 00:10:42;;;;;;;;;;;;;;;15.86;47.19;97433.66;30001;983;1877;-60
2022/08/07 00:11:14;;;;;;;;;;;;;;;15.88;47.47;97442.38;30001;983;1877;-58
2022/08/07 00:11:45;;;;;;;;;;;;;;;15.87;46.65;97440.75;30001;982;1877;-60
2022/08/07 00:12:16;;;;;;;;;;;;;;;15.87;46.54;97426.25;30001;982;1877;-56
2022/08/07 00:12:48;;;;;;;;;;;;;;;15.87;46.54;97424.34;30001;982;1877;-59
2022/08/07 00:13:20;;;;;;;;;;;;;;;15.88;46.62;97439.63;30001;982;1877;-58
2022/08/07 00:13:51;;;;;;;;;;;;;;;15.87;46.98;97429.81;30001;983;1876;-56
2022/08/07 00:14:23;;;;;;;;;;;;;;;15.86;47.37;97433.66;30001;983;1876;-59
2022/08/07 00:14:55;;;;;;;;;;;;;;;15.88;47.10;97431.41;30001;983;1863;-60
2022/08/07 00:15:26;;;;;;;;;;;;;;;15.87;47.19;97432.53;30001;983;1868;-59
2022/08/07 00:15:58;;;;;;;;;;;;;;;15.86;47.01;97428.19;30001;983;1877;-60
2022/08/07 00:16:30;;;;;;;;;;;;;;;15.85;47.53;97426.56;30001;983;1877;-59
2022/08/07 00:17:01;;;;;;;;;;;;;;;15.85;47.16;97429.31;30001;983;1877;-58
2022/08/07 00:17:35;;;;;;;;;;;;;;;15.88;46.83;97431.41;30001;983;1877;-59
2022/08/07 00:18:09;;;;;;;;;;;;;;;15.89;46.65;97427.56;30001;983;1877;-56
2022/08/07 00:18:41;;;;;;;;;;;;;;;15.87;46.85;97424.34;30001;982;1877;-56
2022/08/07 00:19:11;;;;;;;;;;;;;;;15.85;47.16;97433.97;30001;982;1877;-59
2022/08/07 00:19:46;;;;;;;;;;;;;;;15.80;47.58;97434.91;30001;982;1877;-56
2022/08/07 00:20:17;;;;;;;;;;;;;;;15.77;46.87;97429.25;30001;982;1864;-57
2022/08/07 00:20:52;;;;;;;;;;;;;;;15.74;46.83;97425.22;30001;982;1868;-58
2022/08/07 00:21:23;;;;;;;;;;;;;;;15.75;46.93;97432.31;30001;983;1876;-57
2022/08/07 00:21:54;;;;;;;;;;;;;;;15.74;47.01;97425.22;30001;983;1876;-57
2022/08/07 00:22:24;;;;;;;;;;;;;;;15.74;46.75;97430.69;30001;969;1899;-59
2022/08/07 00:22:55;;;;;;;;;;;;;;;15.74;47.10;97423.28;30001;983;1863;-59
2022/08/07 00:23:26;;;;;;;;;;;;;;;15.74;46.97;97431.50;30001;983;1868;-56
2022/08/07 00:23:57;;;;;;;;;;;;;;;15.76;47.34;97425.72;30001;983;1877;-60
2022/08/07 00:24:28;;;;;;;;;;;;;;;15.77;46.92;97419.13;30001;983;1877;-57
2022/08/07 00:24:59;;;;;;;;;;;;;;;15.74;46.88;97426.03;30001;983;1877;-59
2022/08/07 00:25:30;;;;;;;;;;;;;;;15.71;46.89;97425.84;30001;983;1877;-56
2022/08/07 00:26:02;;;;;;;;;;;;;;;15.72;46.68;97422.78;30001;983;1877;-59
2022/08/07 00:26:34;;;;;;;;;;;;;;;15.74;46.21;97419.75;30001;982;1877;-57
2022/08/07 00:27:05;;;;;;;;;;;;;;;15.74;46.66;97420.56;30001;982;1877;-56
2022/08/07 00:27:36;;;;;;;;;;;;;;;15.74;47.17;97431.50;30001;982;1877;-56
2022/08/07 00:28:09;;;;;;;;;;;;;;;15.74;46.81;97427.94;30001;982;1864;-56
2022/08/07 00:28:40;;;;;;;;;;;;;;;15.72;46.82;97421.97;30001;983;1867;-59
2022/08/07 00:29:11;;;;;;;;;;;;;;;15.70;47.12;97437.91;30001;983;1876;-57
2022/08/07 00:29:42;;;;;;;;;;;;;;;15.69;47.16;97437.09;30001;983;1876;-56
2022/08/07 00:30:13;;;;;;;;;;;;;;;15.69;48.03;97430.81;30001;983;1877;-60
2022/08/07 00:30:44;;;;;;;;;;;;;;;15.68;47.51;97435.47;30001;983;1876;-59
2022/08/07 00:31:15;;;;;;;;;;;;;;;15.72;47.59;97432.94;30001;983;1877;-60
2022/08/07 00:31:50;;;;;;;;;;;;;;;15.73;47.17;97429.06;30001;983;1877;-56
2022/08/07 00:32:22;;;;;;;;;;;;;;;15.75;47.46;97435.03;30001;983;1877;-59
2022/08/07 00:33:00;;;;;;;;;;;;;;;15.73;47.49;97429.06;30001;983;1877;-59
2022/08/07 00:33:31;;;;;;;;;;;;;;;15.71;47.45;97425.84;30001;983;1864;-56
2022/08/07 00:34:02;;;;;;;;;;;;;;;15.71;47.17;97426.66;30001;982;1868;-56
2022/08/07 00:34:33;;;;;;;;;;;;;;;15.71;47.48;97431.31;30001;982;1877;-56
2022/08/07 00:35:05;;;;;;;;;;;;;;;15.69;47.29;97428.06;30001;982;1877;-60
2022/08/07 00:35:37;;;;;;;;;;;;;;;15.66;47.36;97432.25;30001;982;1877;-60
2022/08/07 00:36:08;;;;;;;;;;;;;;;15.65;47.98;97436.09;30001;983;1876;-60
2022/08/07 00:36:43;;;;;;;;;;;;;;;15.64;48.03;97433.66;30001;983;1876;-56
2022/08/07 00:37:17;;;;;;;;;;;;;;;15.64;47.72;97431.75;30001;983;1876;-56
2022/08/07 00:37:49;;;;;;;;;;;;;;;15.67;47.24;97424.84;30001;983;1876;-59
2022/08/07 00:38:19;;;;;;;;;;;;;;;15.67;47.37;97422.09;30001;983;1876;-59
2022/08/07 00:38:50;;;;;;;;;;;;;;;15.65;48.29;97427.88;30001;983;1863;-56
2022/08/07 00:39:21;;;;;;;;;;;;;;;15.61;47.88;97415.16;30001;983;1868;-59
2022/08/07 00:39:53;;;;;;;;;;;;;;;15.57;47.85;97430.59;30001;983;1877;-56
2022/08/07 00:40:24;;;;;;;;;;;;;;;15.59;47.68;97428.34;30001;982;1877;-59
2022/08/07 00:40:55;;;;;;;;;;;;;;;15.60;48.02;97429.94;30001;982;1877;-59
2022/08/07 00:41:26;;;;;;;;;;;;;;;15.61;47.78;97428.81;30001;982;1877;-56
2022/08/07 00:41:58;;;;;;;;;;;;;;;15.59;47.54;97436.56;30001;982;1877;-56
2022/08/07 00:42:28;;;;;;;;;;;;;;;15.59;49.18;97431.09;30001;985;1877;-56
2022/08/07 00:43:00;;;;;;;;;;;;;;;15.55;48.64;97436.34;30001;982;1877;-59
2022/08/07 00:43:31;;;;;;;;;;;;;;;15.47;49.40;97442.56;30001;982;1877;-59
2022/08/07 00:44:02;;;;;;;;;;;;;;;15.44;48.89;97440.44;30001;983;1754;-56
2022/08/07 00:44:33;;;;;;;;;;;;;;;15.42;48.71;97438.00;30001;983;1868;-56
2022/08/07 00:45:05;;;;;;;;;;;;;;;15.41;48.65;97439.13;30001;983;1876;-56
2022/08/07 00:45:37;;;;;;;;;;;;;;;15.42;48.92;97446.22;30001;983;1877;-59
2022/08/07 00:46:08;;;;;;;;;;;;;;;15.42;48.90;97446.22;30001;983;1877;-59
2022/08/07 00:46:38;;;;;;;;;;;;;;;15.42;49.39;97440.75;30001;983;1877;-56
2022/08/07 00:47:11;;;;;;;;;;;;;;;15.39;49.95;97446.84;30001;983;1864;-58
2022/08/07 00:47:42;;;;;;;;;;;;;;;15.39;49.44;97451.50;30001;963;1888;-60
2022/08/07 00:48:13;;;;;;;;;;;;;;;15.36;48.93;97441.97;30001;982;1877;-60
2022/08/07 00:48:44;;;;;;;;;;;;;;;15.36;49.59;97439.25;30001;982;1877;-56
2022/08/07 00:49:17;;;;;;;;;;;;;;;15.36;48.84;97438.44;30001;982;1877;-59
2022/08/07 00:49:47;;;;;;;;;;;;;;;15.38;49.06;97438.94;30001;982;1877;-56
2022/08/07 00:50:18;;;;;;;;;;;;;;;15.38;48.83;97439.75;30001;982;1877;-59
2022/08/07 00:50:49;;;;;;;;;;;;;;;15.40;48.56;97442.97;30001;982;1877;-56
2022/08/07 00:51:20;;;;;;;;;;;;;;;15.41;48.48;97433.66;30001;983;1863;-57
2022/08/07 00:51:51;;;;;;;;;;;;;;;15.45;48.37;97438.50;30001;983;1868;-57
2022/08/07 00:52:22;;;;;;;;;;;;;;;15.46;48.11;97435.47;30001;983;1814;-57
2022/08/07 00:52:53;;;;;;;;;;;;;;;15.48;47.91;97437.91;30001;983;1877;-59
2022/08/07 00:53:23;;;;;;;;;;;;;;;15.46;48.39;97430.00;30001;983;1877;-56
2022/08/07 00:53:54;;;;;;;;;;;;;;;15.45;48.06;97433.03;30001;983;1877;-59
2022/08/07 00:54:26;;;;;;;;;;;;;;;15.44;48.28;97432.22;30001;983;1877;-60
2022/08/07 00:54:57;;;;;;;;;;;;;;;15.44;48.20;97440.44;30001;983;1877;-59
2022/08/07 00:55:31;;;;;;;;;;;;;;;15.43;48.14;97436.91;30001;982;1877;-56
2022/08/07 00:56:03;;;;;;;;;;;;;;;15.42;49.00;97439.94;30001;982;1877;-57
2022/08/07 00:56:34;;;;;;;;;;;;;;;15.39;48.86;97446.84;30001;982;1864;-55
2022/08/07 00:57:05;;;;;;;;;;;;;;;15.37;48.64;97442.78;30001;985;1868;-56
2022/08/07 00:57:36;;;;;;;;;;;;;;;15.36;48.39;97439.25;30001;982;1877;-57
2022/08/07 00:58:07;;;;;;;;;;;;;;;15.36;47.93;97441.97;30001;982;1864;-59
2022/08/07 00:58:41;;;;;;;;;;;;;;;15.34;48.09;97433.28;30001;982;1868;-56
2022/08/07 00:59:12;;;;;;;;;;;;;;;15.35;47.92;97440.37;30001;983;1876;-55
2022/08/07 00:59:43;;;;;;;;;;;;;;;15.38;47.96;97445.22;30001;983;1876;-56
2022/08/07 01:00:15;;;;;;;;;;;;;;;15.38;48.30;97428.81;30001;983;1876;-59
2022/08/07 01:00:46;;;;;;;;;;;;;;;15.39;47.95;97435.91;30001;983;1877;-61
2022/08/07 01:01:19;;;;;;;;;;;;;;;15.38;47.92;97433.47;30001;983;1877;-56
2022/08/07 01:02:01;;;;;;;;;;;;;;;15.38;48.32;97433.47;30001;983;1863;-56
2022/08/07 01:02:33;;;;;;;;;;;;;;;15.35;48.15;97434.09;30001;983;1868;-56
2022/08/07 01:03:07;;;;;;;;;;;;;;;15.34;48.27;97433.28;30001;982;1864;-60
2022/08/07 01:03:44;;;;;;;;;;;;;;;15.35;48.20;97434.91;30001;982;1868;-59
2022/08/07 01:04:15;;;;;;;;;;;;;;;15.35;47.59;97429.44;30001;982;1877;-59
2022/08/07 01:04:46;;;;;;;;;;;;;;;15.35;47.90;97432.16;30001;982;1877;-56
2022/08/07 01:05:21;;;;;;;;;;;;;;;15.34;48.40;97433.28;30001;982;1877;-57
2022/08/07 01:06:00;;;;;;;;;;;;;;;15.31;47.93;97428.44;30001;985;1872;-57
2022/08/07 01:06:32;;;;;;;;;;;;;;;15.31;47.99;97425.69;30001;983;1876;-56
2022/08/07 01:07:07;;;;;;;;;;;;;;;15.32;48.01;97424.56;30001;983;1876;-57
2022/08/07 01:07:52;;;;;;;;;;;;;;;;;;;;;
2022/08/07 01:08:24;;;;;;;;;;;;;;;15.24;48.58;97425.34;30001;983;1859;-60
2022/08/07 01:08:57;;;;;;;;;;;;;;;15.21;48.81;97427.88;30001;983;1868;-59
2022/08/07 01:09:28;;;;;;;;;;;;;;;15.14;48.73;97428.31;30001;983;1877;-55
2022/08/07 01:09:59;;;;;;;;;;;;;;;15.12;48.69;97427.00;30001;983;1812;-59
2022/08/07 01:10:34;;;;;;;;;;;;;;;15.10;48.27;97427.31;30001;982;1776;-60
2022/08/07 01:11:05;;;;;;;;;;;;;;;15.07;48.60;97428.72;30001;982;1877;-59
2022/08/07 01:11:37;;;;;;;;;;;;;;;15.06;49.12;97429.03;30001;982;1877;-60
2022/08/07 01:12:12;;;;;;;;;;;;;;;15.05;48.91;97435.62;30001;982;1877;-58
2022/08/07 01:12:45;;;;;;;;;;;;;;;15.03;48.64;97426.91;30001;982;1877;-59
2022/08/07 01:13:16;;;;;;;;;;;;;;;15.03;48.91;97437.84;30001;983;1876;-59
2022/08/07 01:13:49;;;;;;;;;;;;;;;15.02;48.65;97438.97;30001;983;1863;-56
2022/08/07 01:14:20;;;;;;;;;;;;;;;15.02;48.82;97430.75;30001;983;1868;-59
2022/08/07 01:14:51;;;;;;;;;;;;;;;15.05;48.89;97430.16;30001;983;1798;-59
2022/08/07 01:15:24;;;;;;;;;;;;;;;15.05;48.97;97432.87;30001;983;1876;-59
2022/08/07 01:15:56;;;;;;;;;;;;;;;15.03;49.61;97432.37;30001;972;1896;-59
2022/08/07 01:16:27;;;;;;;;;;;;;;;15.00;49.24;97433.00;30001;983;1877;-59
2022/08/07 01:16:59;;;;;;;;;;;;;;;14.98;49.10;97429.75;30001;983;1877;-59
2022/08/07 01:17:31;;;;;;;;;;;;;;;14.98;50.11;97429.75;30001;983;1877;-56
2022/08/07 01:18:02;;;;;;;;;;;;;;;14.98;50.63;97435.22;30001;983;1877;-59
2022/08/07 01:18:34;;;;;;;;;;;;;;;14.96;49.89;97435.53;30001;982;1877;-59
2022/08/07 01:19:06;;;;;;;;;;;;;;;14.98;49.92;97429.75;30001;982;1864;-59
2022/08/07 01:19:37;;;;;;;;;;;;;;;15.01;49.13;97427.22;30001;982;1868;-59
2022/08/07 01:20:12;;;;;;;;;;;;;;;15.03;49.40;97426.91;30001;982;1877;-59
2022/08/07 01:20:52;;;;;;;;;;;;;;;15.05;48.96;97424.69;30001;983;1876;-59
2022/08/07 01:21:27;;;;;;;;;;;;;;;15.06;48.98;97420.84;30001;983;1876;-59
2022/08/07 01:21:58;;;;;;;;;;;;;;;15.05;49.35;97425.50;30001;983;1876;-59
2022/08/07 01:22:30;;;;;;;;;;;;;;;15.05;49.45;97424.69;30001;983;1876;-58
2022/08/07 01:23:01;;;;;;;;;;;;;;;15.05;49.22;97427.41;30001;983;1876;-59
2022/08/07 01:23:33;;;;;;;;;;;;;;;15.05;49.62;97424.69;30001;983;1877;-59
2022/08/07 01:24:05;;;;;;;;;;;;;;;15.04;49.37;97428.53;30001;983;1877;-57
2022/08/07 01:24:36;;;;;;;;;;;;;;;15.03;49.31;97432.37;30001;983;1864;-56
2022/08/07 01:25:11;;;;;;;;;;;;;;;15.03;49.29;97421.44;30001;983;1868;-58
2022/08/07 01:25:42;;;;;;;;;;;;;;;15.01;49.39;97426.41;30001;982;1877;-59
2022/08/07 01:26:14;;;;;;;;;;;;;;;14.99;49.74;97423.19;30001;982;1864;-60
2022/08/07 01:26:46;;;;;;;;;;;;;;;14.95;49.64;97419.44;30001;982;1869;-60
2022/08/07 01:27:19;;;;;;;;;;;;;;;14.94;49.77;97420.56;30001;982;1877;-60
2022/08/07 01:27:51;;;;;;;;;;;;;;;14.94;50.16;97423.28;30001;982;1877;-55
2022/08/07 01:28:22;;;;;;;;;;;;;;;14.88;50.87;97430.00;30001;983;1876;-58
2022/08/07 01:28:54;;;;;;;;;;;;;;;14.85;50.67;97436.09;30001;983;1876;-59
2022/08/07 01:29:27;;;;;;;;;;;;;;;14.83;50.87;97421.94;30001;983;1876;-58
2022/08/07 01:29:59;;;;;;;;;;;;;;;14.81;50.80;97427.69;30001;983;1876;-59
2022/08/07 01:30:31;;;;;;;;;;;;;;;14.79;50.36;97420.91;30001;983;1863;-59
2022/08/07 01:31:02;;;;;;;;;;;;;;;14.77;50.56;97423.97;30001;983;1868;-59
2022/08/07 01:31:33;;;;;;;;;;;;;;;14.75;50.33;97421.53;30001;983;1876;-60
2022/08/07 01:32:04;;;;;;;;;;;;;;;14.76;50.08;97425.06;30001;983;1877;-55
2022/08/07 01:32:35;;;;;;;;;;;;;;;14.79;50.13;97426.38;30001;983;1877;-59
2022/08/07 01:33:06;;;;;;;;;;;;;;;14.79;50.74;97432.66;30001;983;1877;-60
2022/08/07 01:33:40;;;;;;;;;;;;;;;14.78;50.57;97427.50;30001;982;1877;-59
2022/08/07 01:34:12;;;;;;;;;;;;;;;14.78;51.43;97432.97;30001;982;1877;-60
2022/08/07 01:34:44;;;;;;;;;;;;;;;14.75;51.00;97424.25;30001;982;1877;-58
2022/08/07 01:35:15;;;;;;;;;;;;;;;14.75;50.87;97429.72;30001;982;1877;-56
2022/08/07 01:35:51;;;;;;;;;;;;;;;14.77;50.75;97428.62;30001;983;1863;-58
2022/08/07 01:36:22;;;;;;;;;;;;;;;14.78;50.41;97431.03;30001;983;1868;-57
2022/08/07 01:36:53;;;;;;;;;;;;;;;14.79;50.47;97429.91;30001;983;1876;-59
2022/08/07 01:37:24;;;;;;;;;;;;;;;14.81;50.37;97426.88;30001;983;1876;-56
2022/08/07 01:37:55;;;;;;;;;;;;;;;14.82;50.14;97426.59;30001;983;1876;-59
2022/08/07 01:38:27;;;;;;;;;;;;;;;14.83;50.05;97425.47;30001;983;1877;-60
2022/08/07 01:39:01;;;;;;;;;;;;;;;14.80;50.57;97422.53;30001;983;1863;-57
2022/08/07 01:39:32;;;;;;;;;;;;;;;14.76;50.37;97425.06;30001;983;1868;-60
2022/08/07 01:40:05;;;;;;;;;;;;;;;14.74;50.28;97425.37;30001;983;1877;-56
2022/08/07 01:40:47;;;;;;;;;;;;;;;14.75;50.82;97432.47;30001;983;1877;-56
2022/08/07 01:41:19;;;;;;;;;;;;;;;14.74;50.43;97425.37;30001;982;1877;-59
2022/08/07 01:41:51;;;;;;;;;;;;;;;14.75;50.51;97426.19;30001;982;1877;-57
2022/08/07 01:42:22;;;;;;;;;;;;;;;14.74;50.70;97425.37;30001;982;1877;-59
2022/08/07 01:42:53;;;;;;;;;;;;;;;14.75;50.82;97428.91;30001;982;1877;-59
2022/08/07 01:43:25;;;;;;;;;;;;;;;14.75;50.56;97421.53;30001;983;1876;-56
2022/08/07 01:43:56;;;;;;;;;;;;;;;14.77;50.88;97428.62;30001;983;1876;-59
2022/08/07 01:44:29;;;;;;;;;;;;;;;14.77;50.76;97434.06;30001;983;1863;-59
2022/08/07 01:45:01;;;;;;;;;;;;;;;14.73;51.07;97431.94;30001;983;1759;-58
2022/08/07 01:45:32;;;;;;;;;;;;;;;14.72;50.99;97435.00;30001;983;1877;-59
2022/08/07 01:46:03;;;;;;;;;;;;;;;14.70;51.11;97427.09;30001;983;1877;-56
2022/08/07 01:46:35;;;;;;;;;;;;;;;14.72;50.95;97422.13;30001;983;1864;-58
2022/08/07 01:47:07;;;;;;;;;;;;;;;14.73;50.89;97429.22;30002;983;1868;-56
2022/08/07 01:47:37;;;;;;;;;;;;;;;14.74;50.77;97425.37;30002;982;1877;-57
2022/08/07 01:48:09;;;;;;;;;;;;;;;14.75;50.96;97429.72;30002;982;1877;-56
2022/08/07 01:48:41;;;;;;;;;;;;;;;14.74;50.60;97428.09;30002;982;1877;-56
2022/08/07 01:49:12;;;;;;;;;;;;;;;14.77;51.10;97434.06;30002;986;1872;-59
2022/08/07 01:49:43;;;;;;;;;;;;;;;14.81;50.80;97429.62;30002;982;1864;-56
2022/08/07 01:50:14;;;;;;;;;;;;;;;14.82;50.87;97423.03;30002;982;1868;-60
2022/08/07 01:50:48;;;;;;;;;;;;;;;14.84;50.51;97426.28;30002;983;1876;-57
2022/08/07 01:51:21;;;;;;;;;;;;;;;14.83;50.33;97425.47;30001;983;1876;-56
2022/08/07 01:51:53;;;;;;;;;;;;;;;14.83;50.70;97422.72;30002;983;1863;-57
2022/08/07 01:52:25;;;;;;;;;;;;;;;14.79;51.18;97429.91;30002;983;1868;-58
2022/08/07 01:52:57;;;;;;;;;;;;;;;14.77;51.06;97428.62;30002;983;1877;-57
2022/08/07 01:53:30;;;;;;;;;;;;;;;14.74;50.75;97424.56;30002;983;1877;-59
2022/08/07 01:54:03;;;;;;;;;;;;;;;14.74;50.56;97424.56;30002;983;1877;-56
2022/08/07 01:54:35;;;;;;;;;;;;;;;14.74;50.79;97430.84;30002;983;1877;-56
2022/08/07 01:55:09;;;;;;;;;;;;;;;14.75;50.58;97416.06;30002;982;1864;-60
2022/08/07 01:55:46;;;;;;;;;;;;;;;14.78;50.97;97419.31;30002;982;1868;-58
2022/08/07 01:56:23;;;;;;;;;;;;;;;14.74;50.82;97424.56;30002;982;1877;-56
2022/08/07 01:56:56;;;;;;;;;;;;;;;14.74;50.60;97425.37;30002;982;1864;-58
2022/08/07 01:57:31;;;;;;;;;;;;;;;14.75;50.99;97424.25;30002;982;1855;-57
2022/08/07 01:58:06;;;;;;;;;;;;;;;14.75;51.00;97429.72;30002;982;1877;-59
2022/08/07 01:58:38;;;;;;;;;;;;;;;14.74;51.61;97424.56;30002;983;1876;-57
2022/08/07 01:59:14;;;;;;;;;;;;;;;14.73;51.61;97423.75;30002;986;1876;-60
2022/08/07 01:59:49;;;;;;;;;;;;;;;14.73;51.45;97423.75;30002;983;1876;-56
2022/08/07 02:00:20;;;;;;;;;;;;;;;14.71;51.27;97426.00;30002;983;1877;-57
2022/08/07 02:01:08;;;;;;;;;;;;;;;14.70;51.81;97421.62;30002;983;1877;-58
2022/08/07 02:01:42;;;;;;;;;;;;;;;14.72;51.45;97426.78;30002;983;1877;-58
2022/08/07 02:02:18;;;;;;;;;;;;;;;14.72;51.22;97424.06;30002;983;1864;-56
2022/08/07 02:02:55;;;;;;;;;;;;;;;14.71;50.80;97420.53;30002;982;1759;-56
2022/08/07 02:03:27;;;;;;;;;;;;;;;14.71;51.08;97423.25;30002;982;1877;-59
2022/08/07 02:04:23;;;;;;;;;;;;;;;14.72;51.16;97421.34;30002;982;1877;-56
2022/08/07 02:04:57;;;;;;;;;;;;;;;14.72;50.78;97415.88;30002;982;1877;-59
2022/08/07 02:05:37;;;;;;;;;;;;;;;14.71;51.02;97420.53;30002;982;1877;-59
2022/08/07 02:06:11;;;;;;;;;;;;;;;14.73;50.90;97422.94;30002;983;1863;-59
2022/08/07 02:06:42;;;;;;;;;;;;;;;14.72;51.21;97413.94;30002;983;1868;-58
2022/08/07 02:07:15;;;;;;;;;;;;;;;14.71;51.13;97415.06;30002;983;1876;-60
2022/08/07 02:07:52;;;;;;;;;;;;;;;14.69;52.24;97425.47;30002;983;1877;-57
2022/08/07 02:08:24;;;;;;;;;;;;;;;14.68;51.74;97415.66;30002;983;1877;-60
2022/08/07 02:08:59;;;;;;;;;;;;;;;14.69;51.98;97417.28;30002;983;1877;-59
2022/08/07 02:09:30;;;;;;;;;;;;;;;14.69;51.46;97413.75;30002;983;1877;-59
2022/08/07 02:10:03;;;;;;;;;;;;;;;14.69;51.57;97413.75;30002;983;1877;-59
2022/08/07 02:10:38;;;;;;;;;;;;;;;14.65;51.01;97410.81;30002;982;1877;-57
2022/08/07 02:11:13;;;;;;;;;;;;;;;14.64;51.11;97409.19;30002;982;1864;-60
2022/08/07 02:11:51;;;;;;;;;;;;;;;14.62;51.80;97411.44;30002;982;1868;-60
2022/08/07 02:12:23;;;;;;;;;;;;;;;14.62;51.50;97405.97;30002;982;1877;-60
2022/08/07 02:12:58;;;;;;;;;;;;;;;14.62;51.68;97414.16;30002;983;1863;-58
2022/08/07 02:13:30;;;;;;;;;;;;;;;14.62;51.71;97411.44;30002;983;1868;-58
2022/08/07 02:14:06;;;;;;;;;;;;;;;14.62;51.65;97416.87;30002;986;1876;-58
2022/08/07 02:14:37;;;;;;;;;;;;;;;14.61;52.05;97409.81;30002;983;1876;-59
2022/08/07 02:15:10;;;;;;;;;;;;;;;14.58;51.68;97418.63;30002;983;1877;-56
2022/08/07 02:15:41;;;;;;;;;;;;;;;14.57;51.65;97403.34;30002;986;1877;-56
2022/08/07 02:16:13;;;;;;;;;;;;;;;14.58;51.56;97410.41;30002;983;1877;-56
2022/08/07 02:16:46;;;;;;;;;;;;;;;14.58;51.65;97407.69;30002;983;1877;-57
2022/08/07 02:17:18;;;;;;;;;;;;;;;14.59;51.59;97406.56;30002;983;1753;-57
2022/08/07 02:17:50;;;;;;;;;;;;;;;14.59;51.59;97412.03;30002;982;1868;-58
2022/08/07 02:18:22;;;;;;;;;;;;;;;14.60;51.43;97408.19;30002;982;1877;-56
2022/08/07 02:18:54;;;;;;;;;;;;;;;14.60;51.56;97410.91;30002;982;1877;-57
2022/08/07 02:19:26;;;;;;;;;;;;;;;14.60;51.95;97408.19;30002;982;1877;-57
2022/08/07 02:19:58;;;;;;;;;;;;;;;14.56;51.80;97415.38;30002;982;1864;-57
2022/08/07 02:20:30;;;;;;;;;;;;;;;14.57;52.05;97408.81;30002;983;1867;-57
2022/08/07 02:21:02;;;;;;;;;;;;;;;14.52;52.15;97406.19;30002;983;1876;-57
2022/08/07 02:21:36;;;;;;;;;;;;;;;14.48;51.96;97410.66;30002;983;1876;-56
2022/08/07 02:22:09;;;;;;;;;;;;;;;14.51;51.98;97409.25;30002;983;1876;-57
2022/08/07 02:22:41;;;;;;;;;;;;;;;14.49;51.74;97412.28;30002;986;1877;-57
2022/08/07 02:23:13;;;;;;;;;;;;;;;14.49;51.68;97398.62;30002;983;1863;-56
2022/08/07 02:23:44;;;;;;;;;;;;;;;14.50;51.97;97402.16;30002;983;1868;-56
2022/08/07 02:24:16;;;;;;;;;;;;;;;14.50;52.49;97402.97;30002;983;1864;-57
2022/08/07 02:24:49;;;;;;;;;;;;;;;14.48;52.46;97399.72;30002;983;1868;-57
2022/08/07 02:25:22;;;;;;;;;;;;;;;14.50;52.30;97402.97;30002;982;1877;-57
2022/08/07 02:25:55;;;;;;;;;;;;;;;14.52;52.16;97410.84;30002;982;1877;-57
2022/08/07 02:26:27;;;;;;;;;;;;;;;14.52;52.26;97405.41;30002;982;1877;-56
2022/08/07 02:27:00;;;;;;;;;;;;;;;14.51;52.11;97401.84;30002;982;1877;-57
2022/08/07 02:27:32;;;;;;;;;;;;;;;14.52;52.07;97400.75;30002;982;1877;-56
2022/08/07 02:28:05;;;;;;;;;;;;;;;14.53;52.12;97402.37;30002;983;1876;-56
2022/08/07 02:28:36;;;;;;;;;;;;;;;14.54;51.64;97398.53;30002;983;1863;-57
2022/08/07 02:29:09;;;;;;;;;;;;;;;14.55;51.95;97399.31;30002;983;1854;-56
2022/08/07 02:29:41;;;;;;;;;;;;;;;14.53;51.91;97402.37;30002;983;1877;-56
2022/08/07 02:30:12;;;;;;;;;;;;;;;14.52;52.10;97406.19;30002;983;1868;-57
2022/08/07 02:30:43;;;;;;;;;;;;;;;14.50;52.20;97408.44;30002;983;1872;-57
2022/08/07 02:31:15;;;;;;;;;;;;;;;14.51;52.34;97404.59;30002;983;1881;-56
2022/08/07 02:31:48;;;;;;;;;;;;;;;14.50;52.53;97408.44;30002;983;1881;-57
2022/08/07 02:32:20;;;;;;;;;;;;;;;14.50;52.33;97402.16;30002;983;1881;-58
2022/08/07 02:32:52;;;;;;;;;;;;;;;14.50;52.50;97404.88;30002;982;1881;-57
2022/08/07 02:33:24;;;;;;;;;;;;;;;14.50;52.18;97397.50;30002;982;1881;-59
2022/08/07 02:33:56;;;;;;;;;;;;;;;14.48;52.77;97399.72;30002;982;1881;-56
2022/08/07 02:34:29;;;;;;;;;;;;;;;14.47;52.69;97398.12;30002;982;1868;-57
2022/08/07 02:35:00;;;;;;;;;;;;;;;14.47;52.74;97398.12;30002;982;1873;-59
2022/08/07 02:35:32;;;;;;;;;;;;;;;14.47;52.63;97400.84;30002;983;1881;-59
2022/08/07 02:36:04;;;;;;;;;;;;;;;14.46;53.41;97401.97;30002;983;1881;-59
2022/08/07 02:36:36;;;;;;;;;;;;;;;14.44;52.65;97403.38;30002;983;1881;-60
2022/08/07 02:37:07;;;;;;;;;;;;;;;14.44;53.35;97412.38;30002;983;1881;-56
2022/08/07 02:37:40;;;;;;;;;;;;;;;14.42;53.57;97411.88;30002;983;1881;-60
2022/08/07 02:38:14;;;;;;;;;;;;;;;14.40;53.37;97409.41;30002;983;1881;-57
2022/08/07 02:38:49;;;;;;;;;;;;;;;14.39;53.04;97402.34;30001;983;1881;-57
2022/08/07 02:39:22;;;;;;;;;;;;;;;14.41;53.07;97402.87;30001;983;1868;-56
2022/08/07 02:39:54;;;;;;;;;;;;;;;14.41;52.71;97400.13;30002;983;1872;-60
2022/08/07 02:40:25;;;;;;;;;;;;;;;14.42;53.04;97406.41;30001;982;1881;-59
2022/08/07 02:40:57;;;;;;;;;;;;;;;14.40;52.75;97403.94;30001;961;1902;-57
2022/08/07 02:41:28;;;;;;;;;;;;;;;14.40;53.16;97403.16;30001;982;1881;-58
2022/08/07 02:41:59;;;;;;;;;;;;;;;14.39;52.75;97404.25;30001;982;1881;-58
2022/08/07 02:42:31;;;;;;;;;;;;;;;14.40;52.91;97397.69;30001;982;1881;-56
2022/08/07 02:43:04;;;;;;;;;;;;;;;14.40;53.22;97403.16;30001;983;1881;-56
2022/08/07 02:43:37;;;;;;;;;;;;;;;14.40;53.17;97403.16;30001;983;1881;-56
2022/08/07 02:44:09;;;;;;;;;;;;;;;14.37;53.89;97401.03;30001;983;1881;-57
2022/08/07 02:44:42;;;;;;;;;;;;;;;14.34;53.24;97399.72;30001;983;1867;-59
2022/08/07 02:45:15;;;;;;;;;;;;;;;14.34;53.56;97401.63;30001;983;1872;-59
2022/08/07 02:45:50;;;;;;;;;;;;;;;14.34;53.63;97404.34;30001;983;1881;-57
2022/08/07 02:46:24;;;;;;;;;;;;;;;14.34;53.40;97401.63;30001;983;1881;-57
2022/08/07 02:46:56;;;;;;;;;;;;;;;14.34;53.28;97405.16;30001;961;1903;-57
2022/08/07 02:47:27;;;;;;;;;;;;;;;14.33;53.03;97409.00;30001;982;1881;-56
2022/08/07 02:47:58;;;;;;;;;;;;;;;14.34;53.18;97404.34;30001;982;1881;-57
2022/08/07 02:48:31;;;;;;;;;;;;;;;14.35;53.74;97411.44;30001;982;1868;-59
2022/08/07 02:49:03;;;;;;;;;;;;;;;14.34;54.60;97407.09;30001;982;1873;-56
2022/08/07 02:49:34;;;;;;;;;;;;;;;14.32;53.71;97407.38;30001;982;1882;-60
2022/08/07 02:50:06;;;;;;;;;;;;;;;14.32;53.27;97398.38;30001;982;1868;-56
2022/08/07 02:50:40;;;;;;;;;;;;;;;14.32;54.32;97401.94;30001;983;1872;-59
2022/08/07 02:51:14;;;;;;;;;;;;;;;14.27;55.23;97403.94;30001;983;1881;-56
2022/08/07 02:51:46;;;;;;;;;;;;;;;14.26;54.04;97403.13;30001;983;1881;-59
2022/08/07 02:52:23;;;;;;;;;;;;;;;14.29;53.64;97404.47;30001;983;1868;-56
2022/08/07 02:53:00;;;;;;;;;;;;;;;14.29;53.70;97401.72;30001;983;1872;-58
2022/08/07 02:53:33;;;;;;;;;;;;;;;14.28;54.64;97405.56;30001;983;1881;-60